createdAt,value
2023-01-30T00:01:49.856Z,20.27
2023-01-30T00:04:17.648Z,24.07
2023-01-30T00:06:45.675Z,22.83
2023-01-30T00:09:14.926Z,20.97
2023-01-30T00:11:44.086Z,32.60
2023-01-30T00:14:11.846Z,22.17
2023-01-30T00:16:39.615Z,24.20
2023-01-30T00:19:07.470Z,22.33
2023-01-30T00:21:35.401Z,21.30
2023-01-30T00:24:03.425Z,21.80
2023-01-30T00:26:31.318Z,11.00
2023-01-30T00:29:00.552Z,22.60
2023-01-30T00:31:28.327Z,27.07
2023-01-30T00:33:56.114Z,22.60
2023-01-30T00:36:23.886Z,25.50
2023-01-30T00:38:51.720Z,18.73
2023-01-30T00:41:19.529Z,21.03
2023-01-30T00:44:04.942Z,19.97
2023-01-30T00:46:53.620Z,25.20
2023-01-30T00:49:21.469Z,20.43
2023-01-30T00:51:49.447Z,19.27
2023-01-30T00:54:17.347Z,20.87
2023-01-30T00:56:45.161Z,25.80
2023-01-30T00:59:12.956Z,22.23
2023-01-30T01:01:42.272Z,27.87
2023-01-30T01:04:11.784Z,23.73
2023-01-30T01:06:39.573Z,21.30
2023-01-30T01:09:08.153Z,20.83
2023-01-30T01:11:36.845Z,22.50
2023-01-30T01:14:06.367Z,24.23
2023-01-30T01:16:35.594Z,19.13
2023-01-30T01:19:05.367Z,27.20
2023-01-30T01:21:33.202Z,23.20
2023-01-30T01:24:01.538Z,24.40
2023-01-30T01:26:29.555Z,22.00
2023-01-30T01:28:58.080Z,25.03
2023-01-30T01:31:26.387Z,28.23
2023-01-30T01:33:54.325Z,27.40
2023-01-30T01:36:51.524Z,25.73
2023-01-30T01:39:11.297Z,23.70
2023-01-30T01:41:38.208Z,21.10
2023-01-30T01:44:07.882Z,24.10
2023-01-30T01:46:39.698Z,23.13
2023-01-30T01:49:14.877Z,24.37
2023-01-30T01:51:49.756Z,26.00
2023-01-30T01:54:22.937Z,21.73
2023-01-30T01:56:51.328Z,20.70
2023-01-30T01:59:24.575Z,26.83
2023-01-30T02:01:56.191Z,24.73
2023-01-30T02:04:38.619Z,23.70
2023-01-30T02:07:08.425Z,19.20
2023-01-30T02:09:36.547Z,18.53
2023-01-30T02:12:05.272Z,23.03
2023-01-30T02:14:35.079Z,20.63
2023-01-30T02:17:02.877Z,22.97
2023-01-30T02:19:40.121Z,20.10
2023-01-30T02:22:30.938Z,20.27
2023-01-30T02:25:30.231Z,24.67
2023-01-30T02:28:33.515Z,21.60
2023-01-30T02:31:28.087Z,24.23
2023-01-30T02:34:12.364Z,23.27
2023-01-30T02:36:49.114Z,26.20
2023-01-30T02:39:27.766Z,20.33
2023-01-30T02:42:01.767Z,23.00
2023-01-30T02:44:38.573Z,22.97
2023-01-30T02:47:12.274Z,20.83
2023-01-30T02:49:43.265Z,28.13
2023-01-30T02:52:13.750Z,25.80
2023-01-30T02:54:41.684Z,23.37
2023-01-30T02:57:20.344Z,24.07
2023-01-30T02:59:51.258Z,24.80
2023-01-30T03:02:38.522Z,21.57
2023-01-30T03:05:22.777Z,22.77
2023-01-30T03:07:56.552Z,21.43
2023-01-30T03:10:35.649Z,25.80
2023-01-30T03:13:10.984Z,26.80
2023-01-30T03:15:44.030Z,27.27
2023-01-30T03:18:13.352Z,22.07
2023-01-30T03:20:42.289Z,24.77
2023-01-30T03:23:10.514Z,25.67
2023-01-30T03:25:40.384Z,21.43
2023-01-30T03:28:09.757Z,24.03
2023-01-30T03:30:37.792Z,22.33
2023-01-30T03:33:05.651Z,21.77
2023-01-30T03:35:35.221Z,24.17
2023-01-30T03:38:03.497Z,28.90
2023-01-30T03:40:31.644Z,23.60
2023-01-30T03:42:59.407Z,23.27
2023-01-30T03:45:27.317Z,27.90
2023-01-30T03:47:55.099Z,24.73
2023-01-30T03:50:22.965Z,27.30
2023-01-30T03:52:52.103Z,29.10
2023-01-30T03:55:20.217Z,25.60
2023-01-30T03:57:48.181Z,8.63
2023-01-30T04:00:16.937Z,20.83
2023-01-30T04:02:44.880Z,25.10
2023-01-30T04:05:12.816Z,23.03
2023-01-30T04:07:40.656Z,21.30
2023-01-30T04:10:11.085Z,24.37
2023-01-30T04:12:38.900Z,24.00
2023-01-30T04:15:07.737Z,21.77
2023-01-30T04:17:35.521Z,20.77
2023-01-30T04:20:03.541Z,15.00
2023-01-30T04:22:31.485Z,18.43
2023-01-30T04:24:59.315Z,26.57
2023-01-30T04:27:28.402Z,20.50
2023-01-30T04:29:56.313Z,24.13
2023-01-30T04:32:24.269Z,25.17
2023-01-30T04:34:52.230Z,19.20
2023-01-30T04:37:20.012Z,24.47
2023-01-30T04:39:47.791Z,34.73
2023-01-30T04:42:16.311Z,24.13
2023-01-30T04:44:45.437Z,32.67
2023-01-30T04:47:13.254Z,20.83
2023-01-30T04:49:41.138Z,26.37
2023-01-30T04:52:08.965Z,23.13
2023-01-30T04:54:36.750Z,18.57
2023-01-30T04:57:04.698Z,15.87
2023-01-30T04:59:32.503Z,26.87
2023-01-30T05:02:01.651Z,32.43
2023-01-30T05:04:29.466Z,21.23
2023-01-30T05:06:57.250Z,21.13
2023-01-30T05:09:25.040Z,18.37
2023-01-30T05:11:52.775Z,25.23
2023-01-30T05:14:20.513Z,15.67
2023-01-30T05:16:48.294Z,20.30
2023-01-30T05:19:17.511Z,22.13
2023-01-30T05:21:45.324Z,22.67
2023-01-30T05:24:13.091Z,19.60
2023-01-30T05:26:40.949Z,17.93
2023-01-30T05:29:08.841Z,16.73
2023-01-30T05:31:38.607Z,22.03
2023-01-30T05:34:06.532Z,17.50
2023-01-30T05:36:35.635Z,23.63
2023-01-30T05:39:03.519Z,23.17
2023-01-30T05:41:31.298Z,19.97
2023-01-30T05:43:59.044Z,22.87
2023-01-30T05:46:26.941Z,20.90
2023-01-30T05:48:54.788Z,16.70
2023-01-30T05:51:24.174Z,22.47
2023-01-30T05:53:53.786Z,24.53
2023-01-30T05:56:21.761Z,23.37
2023-01-30T05:58:53.132Z,19.10
2023-01-30T06:01:21.408Z,22.37
2023-01-30T06:03:49.632Z,23.10
2023-01-30T06:06:17.794Z,17.80
2023-01-30T06:08:45.793Z,24.27
2023-01-30T06:11:16.484Z,22.73
2023-01-30T06:13:44.834Z,25.70
2023-01-30T06:16:14.454Z,16.60
2023-01-30T06:18:42.827Z,19.60
2023-01-30T06:21:11.059Z,21.87
2023-01-30T06:23:38.962Z,12.47
2023-01-30T06:26:09.152Z,21.93
2023-01-30T06:28:39.046Z,18.27
2023-01-30T06:31:08.502Z,19.83
2023-01-30T06:33:36.754Z,18.50
2023-01-30T06:36:05.046Z,22.00
2023-01-30T06:38:32.864Z,19.67
2023-01-30T06:41:00.640Z,23.45
2023-01-30T06:43:28.691Z,17.43
2023-01-30T06:45:59.949Z,17.10
2023-01-30T06:48:27.929Z,14.73
2023-01-30T06:50:55.747Z,23.37
2023-01-30T06:53:30.005Z,18.07
2023-01-30T06:55:57.975Z,14.87
2023-01-30T06:58:25.815Z,17.67
2023-01-30T07:00:53.787Z,21.53
2023-01-30T07:03:22.951Z,21.87
2023-01-30T07:05:50.871Z,18.67
2023-01-30T07:08:18.788Z,19.43
2023-01-30T07:10:46.821Z,21.53
2023-01-30T07:13:14.564Z,17.13
2023-01-30T07:15:42.349Z,14.77
2023-01-30T07:18:10.276Z,17.70
2023-01-30T07:20:40.088Z,17.60
2023-01-30T07:23:07.841Z,22.20
2023-01-30T07:25:35.645Z,16.87
2023-01-30T07:28:03.989Z,12.13
2023-01-30T07:30:33.661Z,15.13
2023-01-30T07:33:01.849Z,17.07
2023-01-30T07:35:31.295Z,14.47
2023-01-30T07:38:00.594Z,18.60
2023-01-30T07:40:28.571Z,14.70
2023-01-30T07:43:00.881Z,14.33
2023-01-30T07:45:31.979Z,11.33
2023-01-30T07:47:59.803Z,11.83
2023-01-30T07:50:27.587Z,10.67
2023-01-30T07:52:55.416Z,20.33
2023-01-30T07:55:24.657Z,27.30
2023-01-30T07:57:52.406Z,15.50
2023-01-30T08:00:21.228Z,11.10
2023-01-30T08:02:49.152Z,12.53
2023-01-30T08:05:17.283Z,11.73
2023-01-30T08:07:45.119Z,14.83
2023-01-30T08:10:13.179Z,7.90
2023-01-30T08:12:42.441Z,5.43
2023-01-30T08:15:10.993Z,9.43
2023-01-30T08:17:39.274Z,9.80
2023-01-30T08:20:08.122Z,8.20
2023-01-30T08:22:35.918Z,9.17
2023-01-30T08:25:03.884Z,12.53
2023-01-30T08:27:31.842Z,7.10
2023-01-30T08:30:00.921Z,8.03
2023-01-30T08:32:28.714Z,6.33
2023-01-30T08:34:56.489Z,11.30
2023-01-30T08:37:24.510Z,15.73
2023-01-30T08:39:52.270Z,22.33
2023-01-30T08:42:20.209Z,13.63
2023-01-30T08:44:48.030Z,12.73
2023-01-30T08:47:17.316Z,12.00
2023-01-30T08:49:45.163Z,11.40
2023-01-30T08:52:12.970Z,10.60
2023-01-30T08:54:40.790Z,12.40
2023-01-30T08:57:08.594Z,12.70
2023-01-30T08:59:36.410Z,12.23
2023-01-30T09:02:04.200Z,7.97
2023-01-30T09:04:33.731Z,7.07
2023-01-30T09:07:01.486Z,4.87
2023-01-30T09:09:30.042Z,11.77
2023-01-30T09:11:57.881Z,10.17
2023-01-30T09:14:25.748Z,8.53
2023-01-30T09:16:55.631Z,9.70
2023-01-30T09:19:23.736Z,13.00
2023-01-30T09:21:53.609Z,15.33
2023-01-30T09:24:26.228Z,12.20
2023-01-30T09:26:54.472Z,8.43
2023-01-30T09:29:22.592Z,10.30
2023-01-30T09:31:50.611Z,10.80
2023-01-30T09:34:18.475Z,6.33
2023-01-30T09:36:46.265Z,14.60
2023-01-30T09:39:15.456Z,9.17
2023-01-30T09:42:09.830Z,9.67
2023-01-30T09:45:02.547Z,7.50
2023-01-30T09:47:41.305Z,10.67
2023-01-30T09:50:24.486Z,6.37
2023-01-30T09:52:58.649Z,8.07
2023-01-30T09:55:29.575Z,12.60
2023-01-30T09:57:59.702Z,6.73
2023-01-30T10:00:33.224Z,15.27
2023-01-30T10:03:07.143Z,5.30
2023-01-30T10:05:41.502Z,11.33
2023-01-30T10:08:43.337Z,10.67
2023-01-30T10:11:22.177Z,11.70
2023-01-30T10:14:05.765Z,10.30
2023-01-30T10:16:39.189Z,11.37
2023-01-30T10:19:44.211Z,9.43
2023-01-30T10:22:22.549Z,8.50
2023-01-30T10:25:04.026Z,11.47
2023-01-30T10:27:34.264Z,6.73
2023-01-30T10:30:06.082Z,9.17
2023-01-30T10:32:42.557Z,8.47
2023-01-30T10:35:17.869Z,5.27
2023-01-30T10:37:51.501Z,6.07
2023-01-30T10:40:24.128Z,6.73
2023-01-30T10:43:00.710Z,7.43
2023-01-30T10:45:36.670Z,9.00
2023-01-30T10:48:42.133Z,10.00
2023-01-30T10:51:23.353Z,8.30
2023-01-30T10:53:56.241Z,7.93
2023-01-30T10:56:32.652Z,9.10
2023-01-30T10:59:12.157Z,9.83
2023-01-30T11:01:45.798Z,6.83
2023-01-30T11:04:22.302Z,8.40
2023-01-30T11:06:50.448Z,4.30
2023-01-30T11:09:18.207Z,6.67
2023-01-30T11:11:50.429Z,10.07
2023-01-30T11:14:19.843Z,4.57
2023-01-30T11:16:49.632Z,12.00
2023-01-30T11:19:21.611Z,8.17
2023-01-30T11:21:51.750Z,2.47
2023-01-30T11:24:21.433Z,11.33
2023-01-30T11:26:49.925Z,10.20
2023-01-30T11:29:30.663Z,8.60
2023-01-30T11:32:03.850Z,3.97
2023-01-30T11:34:31.806Z,5.17
2023-01-30T11:37:15.176Z,8.43
2023-01-30T11:39:51.377Z,6.63
2023-01-30T11:42:21.229Z,4.93
2023-01-30T11:45:06.594Z,4.10
2023-01-30T11:47:57.603Z,6.10
2023-01-30T11:51:32.097Z,7.03
2023-01-30T11:53:31.905Z,8.70
2023-01-30T11:56:08.555Z,5.77
2023-01-30T11:58:40.392Z,9.20
2023-01-30T12:01:11.640Z,6.03
2023-01-30T12:03:48.274Z,9.93
2023-01-30T12:06:23.350Z,8.07
2023-01-30T12:08:54.680Z,6.13
2023-01-30T12:11:31.807Z,6.60
2023-01-30T12:14:15.754Z,7.47
2023-01-30T12:16:54.904Z,4.57
2023-01-30T12:19:34.911Z,8.80
2023-01-30T12:22:11.067Z,7.40
2023-01-30T12:24:44.422Z,14.23
2023-01-30T12:27:20.187Z,5.37
2023-01-30T12:30:00.199Z,12.83
2023-01-30T12:32:32.760Z,6.50
2023-01-30T12:35:00.670Z,6.27
2023-01-30T12:37:49.490Z,4.57
2023-01-30T12:40:32.958Z,7.13
2023-01-30T12:43:35.597Z,7.97
2023-01-30T12:46:16.091Z,6.20
2023-01-30T12:49:12.171Z,6.63
2023-01-30T12:51:58.455Z,6.70
2023-01-30T12:54:42.038Z,9.90
2023-01-30T12:57:19.462Z,10.13
2023-01-30T12:59:58.112Z,3.63
2023-01-30T13:02:49.932Z,10.07
2023-01-30T13:05:29.832Z,8.40
2023-01-30T13:08:33.397Z,7.10
2023-01-30T13:11:11.329Z,3.13
2023-01-30T13:13:44.783Z,12.60
2023-01-30T13:16:19.553Z,5.17
2023-01-30T13:18:53.608Z,5.20
2023-01-30T13:21:29.878Z,4.47
2023-01-30T13:24:11.392Z,2.47
2023-01-30T13:26:42.602Z,6.83
2023-01-30T13:29:15.639Z,8.10
2023-01-30T13:31:51.709Z,6.07
2023-01-30T13:34:34.127Z,6.57
2023-01-30T13:37:08.182Z,7.60
2023-01-30T13:39:42.634Z,5.50
2023-01-30T13:42:16.454Z,6.23
2023-01-30T13:44:45.644Z,6.50
2023-01-30T13:47:28.830Z,3.50
2023-01-30T13:50:08.324Z,3.00
2023-01-30T13:52:44.872Z,2.40
2023-01-30T13:55:21.960Z,8.73
2023-01-30T13:57:55.989Z,4.83
2023-01-30T14:00:29.787Z,6.20
2023-01-30T14:03:22.937Z,7.87
2023-01-30T14:06:10.571Z,6.37
2023-01-30T14:08:49.567Z,10.57
2023-01-30T14:11:34.372Z,6.90
2023-01-30T14:14:06.287Z,9.07
2023-01-30T14:16:45.717Z,8.47
2023-01-30T14:19:33.312Z,7.10
2023-01-30T14:22:04.765Z,7.90
2023-01-30T14:24:33.931Z,8.57
2023-01-30T14:27:04.704Z,6.20
2023-01-30T14:29:51.677Z,8.87
2023-01-30T14:32:38.736Z,7.50
2023-01-30T14:35:27.951Z,6.33
2023-01-30T14:38:14.555Z,7.20
2023-01-30T14:41:06.699Z,3.87
2023-01-30T14:43:39.793Z,4.30
2023-01-30T14:46:14.001Z,6.73
2023-01-30T14:48:45.020Z,6.50
2023-01-30T14:51:24.889Z,9.90
2023-01-30T14:53:55.744Z,11.30
2023-01-30T14:56:40.138Z,10.33
2023-01-30T14:59:18.976Z,8.43
2023-01-30T15:01:59.800Z,4.67
2023-01-30T15:04:30.707Z,8.57
2023-01-30T15:07:01.061Z,8.67
2023-01-30T15:09:31.225Z,9.50
2023-01-30T15:12:16.583Z,10.10
2023-01-30T15:14:56.217Z,7.73
2023-01-30T15:17:29.855Z,8.70
2023-01-30T15:20:14.920Z,6.23
2023-01-30T15:22:55.849Z,13.10
2023-01-30T15:25:34.313Z,6.37
2023-01-30T15:28:15.797Z,13.07
2023-01-30T15:31:05.309Z,6.70
2023-01-30T15:33:33.147Z,11.80
2023-01-30T15:36:01.416Z,6.90
2023-01-30T15:38:31.526Z,8.23
2023-01-30T15:41:02.397Z,6.47
2023-01-30T15:43:54.380Z,8.40
2023-01-30T15:46:32.879Z,11.63
2023-01-30T15:49:14.795Z,4.70
2023-01-30T15:51:42.831Z,8.57
2023-01-30T15:54:12.980Z,6.47
2023-01-30T15:56:41.675Z,9.50
2023-01-30T15:59:30.290Z,8.93
2023-01-30T16:02:03.800Z,8.47
2023-01-30T16:04:32.015Z,4.20
2023-01-30T16:06:59.863Z,8.17
2023-01-30T16:09:27.722Z,10.17
2023-01-30T16:11:56.101Z,10.07
2023-01-30T16:14:25.367Z,9.00
2023-01-30T16:16:57.542Z,8.97
2023-01-30T16:19:29.399Z,8.30
2023-01-30T16:22:01.715Z,4.87
2023-01-30T16:24:32.583Z,4.50
2023-01-30T16:27:03.360Z,4.83
2023-01-30T16:29:35.610Z,7.90
2023-01-30T16:32:12.429Z,9.97
2023-01-30T16:34:41.038Z,9.90
2023-01-30T16:37:26.919Z,7.47
2023-01-30T16:40:10.381Z,6.93
2023-01-30T16:42:38.367Z,7.00
2023-01-30T16:46:02.963Z,6.37
2023-01-30T16:48:37.081Z,7.57
2023-01-30T16:51:19.024Z,9.07
2023-01-30T16:53:53.798Z,5.60
2023-01-30T16:56:21.783Z,8.33
2023-01-30T16:58:53.426Z,4.50
2023-01-30T17:01:24.016Z,8.37
2023-01-30T17:04:01.242Z,10.10
2023-01-30T17:06:35.776Z,9.53
2023-01-30T17:09:06.038Z,7.93
2023-01-30T17:11:36.472Z,9.93
2023-01-30T17:14:22.250Z,9.73
2023-01-30T17:17:03.892Z,7.70
2023-01-30T17:19:31.795Z,7.13
2023-01-30T17:22:01.076Z,9.50
2023-01-30T17:24:29.738Z,8.90
2023-01-30T17:26:59.679Z,10.70
2023-01-30T17:29:41.941Z,6.73
2023-01-30T17:32:14.236Z,6.30
2023-01-30T17:34:42.106Z,7.63
2023-01-30T17:37:14.913Z,10.10
2023-01-30T17:39:42.684Z,6.27
2023-01-30T17:42:11.051Z,6.70
2023-01-30T17:44:38.804Z,5.10
2023-01-30T17:47:06.739Z,7.37
2023-01-30T17:49:35.881Z,6.40
2023-01-30T17:52:03.640Z,4.87
2023-01-30T17:54:31.370Z,6.70
2023-01-30T17:57:02.470Z,7.73
2023-01-30T17:59:31.075Z,5.90
2023-01-30T18:01:59.318Z,15.77
2023-01-30T18:04:27.153Z,5.23
2023-01-30T18:07:02.058Z,4.37
2023-01-30T18:09:29.838Z,7.30
2023-01-30T18:11:57.798Z,6.30
2023-01-30T18:14:25.594Z,7.07
2023-01-30T18:16:55.774Z,6.50
2023-01-30T18:19:24.334Z,5.50
2023-01-30T18:21:52.319Z,9.53
2023-01-30T18:24:21.647Z,4.50
2023-01-30T18:26:49.410Z,8.60
2023-01-30T18:29:17.348Z,8.20
2023-01-30T18:31:45.254Z,5.27
2023-01-30T18:34:13.135Z,5.73
2023-01-30T18:36:40.962Z,8.07
2023-01-30T18:39:09.154Z,8.27
2023-01-30T18:41:38.432Z,10.30
2023-01-30T18:44:07.705Z,7.63
2023-01-30T18:46:35.494Z,5.53
2023-01-30T18:49:03.423Z,3.87
2023-01-30T18:51:34.152Z,7.73
2023-01-30T18:54:02.465Z,9.03
2023-01-30T18:56:31.797Z,5.57
2023-01-30T18:59:03.874Z,8.90
2023-01-30T19:01:35.418Z,8.43
2023-01-30T19:04:05.857Z,4.30
2023-01-30T19:06:36.510Z,4.90
2023-01-30T19:09:04.761Z,7.40
2023-01-30T19:11:50.056Z,6.47
2023-01-30T19:14:19.205Z,5.30
2023-01-30T19:16:46.960Z,7.53
2023-01-30T19:19:14.788Z,6.30
2023-01-30T19:21:42.531Z,5.27
2023-01-30T19:24:15.314Z,8.60
2023-01-30T19:26:43.559Z,5.90
2023-01-30T19:29:11.592Z,8.87
2023-01-30T19:31:41.496Z,10.50
2023-01-30T19:34:09.841Z,6.10
2023-01-30T19:36:37.910Z,8.03
2023-01-30T19:39:06.823Z,6.67
2023-01-30T19:41:36.470Z,4.20
2023-01-30T19:44:06.445Z,6.70
2023-01-30T19:46:34.422Z,4.77
2023-01-30T19:49:03.844Z,6.63
2023-01-30T19:51:33.161Z,6.80
2023-01-30T19:54:02.849Z,6.00
2023-01-30T19:56:32.697Z,8.10
2023-01-30T19:59:02.301Z,4.70
2023-01-30T20:01:32.803Z,3.47
2023-01-30T20:04:03.681Z,6.07
2023-01-30T20:06:33.181Z,6.53
2023-01-30T20:09:02.954Z,7.03
2023-01-30T20:11:31.250Z,4.30
2023-01-30T20:14:01.222Z,6.20
2023-01-30T20:16:31.155Z,4.07
2023-01-30T20:19:00.384Z,12.50
2023-01-30T20:21:31.294Z,3.40
2023-01-30T20:23:59.916Z,2.70
2023-01-30T20:26:30.417Z,5.13
2023-01-30T20:28:59.016Z,4.50
2023-01-30T20:31:28.774Z,4.23
2023-01-30T20:33:57.653Z,4.33
2023-01-30T20:36:27.032Z,5.70
2023-01-30T20:38:57.075Z,4.67
2023-01-30T20:41:26.561Z,3.87
2023-01-30T20:43:57.223Z,4.43
2023-01-30T20:46:27.548Z,8.60
2023-01-30T20:48:56.847Z,6.00
2023-01-30T20:51:26.701Z,5.40
2023-01-30T20:53:57.825Z,4.20
2023-01-30T20:56:27.548Z,3.57
2023-01-30T20:58:55.321Z,4.20
2023-01-30T21:01:24.990Z,6.80
2023-01-30T21:03:54.422Z,8.27
2023-01-30T21:06:41.859Z,4.83
2023-01-30T21:09:15.193Z,5.80
2023-01-30T21:11:43.211Z,4.03
2023-01-30T21:14:11.239Z,5.90
2023-01-30T21:16:39.556Z,7.07
2023-01-30T21:19:09.461Z,3.00
2023-01-30T21:21:40.765Z,4.30
2023-01-30T21:24:12.953Z,3.50
2023-01-30T21:26:45.939Z,3.90
2023-01-30T21:29:15.347Z,2.90
2023-01-30T21:31:43.570Z,3.87
2023-01-30T21:34:11.762Z,4.83
2023-01-30T21:36:40.337Z,3.97
2023-01-30T21:39:25.890Z,5.57
2023-01-30T21:42:12.850Z,6.67
2023-01-30T21:44:40.875Z,7.30
2023-01-30T21:47:09.230Z,4.67
2023-01-30T21:49:37.078Z,6.70
2023-01-30T21:52:05.246Z,7.67
2023-01-30T21:54:32.998Z,4.57
2023-01-30T21:57:02.366Z,6.23
2023-01-30T21:59:31.418Z,4.60
2023-01-30T22:01:59.168Z,3.80
2023-01-30T22:04:26.932Z,4.73
2023-01-30T22:06:54.672Z,5.00
2023-01-30T22:09:22.500Z,5.43
2023-01-30T22:11:51.035Z,6.23
2023-01-30T22:14:20.164Z,2.90
2023-01-30T22:16:47.967Z,3.60
2023-01-30T22:19:15.764Z,4.73
2023-01-30T22:21:43.512Z,7.10
2023-01-30T22:24:12.101Z,7.50
2023-01-30T22:26:39.941Z,3.90
2023-01-30T22:29:08.144Z,4.23
2023-01-30T22:31:40.373Z,7.13
2023-01-30T22:34:08.847Z,3.70
2023-01-30T22:36:37.469Z,4.73
2023-01-30T22:39:06.212Z,4.57
2023-01-30T22:41:36.216Z,7.27
2023-01-30T22:44:06.385Z,6.00
2023-01-30T22:46:36.414Z,4.33
2023-01-30T22:49:07.876Z,4.23
2023-01-30T22:51:37.167Z,5.27
2023-01-30T22:54:07.332Z,13.67
2023-01-30T22:56:38.440Z,11.90
2023-01-30T23:01:43.415Z,4.37
2023-01-30T23:04:14.809Z,8.07
2023-01-30T23:06:43.551Z,6.90
2023-01-30T23:09:15.280Z,4.40
2023-01-30T23:11:44.571Z,5.53
2023-01-30T23:14:17.992Z,5.03
2023-01-30T23:16:46.405Z,9.03
2023-01-30T23:19:14.599Z,3.53
2023-01-30T23:21:45.446Z,10.43
2023-01-30T23:24:15.332Z,4.50
2023-01-30T23:26:45.216Z,4.67
2023-01-30T23:29:15.537Z,4.80
2023-01-30T23:31:45.272Z,4.57
2023-01-30T23:34:17.068Z,4.60
2023-01-30T23:36:45.412Z,6.00
2023-01-30T23:39:14.465Z,3.73
2023-01-30T23:41:44.136Z,3.87
2023-01-30T23:44:12.112Z,4.30
2023-01-30T23:46:41.856Z,4.30
2023-01-30T23:49:12.498Z,2.20
2023-01-30T23:51:44.055Z,7.20
2023-01-30T23:54:13.328Z,7.00
2023-01-30T23:56:43.762Z,2.63
2023-01-30T23:59:12.175Z,8.07
